createdAt,value
2022-12-25T00:00:53.367Z,96.46
2022-12-25T00:03:56.808Z,97.18
2022-12-25T00:06:59.977Z,99.98
2022-12-25T00:10:02.410Z,96.41
2022-12-25T00:13:06.141Z,95.96
2022-12-25T00:16:09.598Z,98.23
2022-12-25T00:19:12.169Z,97.19
2022-12-25T00:22:15.205Z,99.43
2022-12-25T00:25:17.735Z,99.30
2022-12-25T00:28:20.365Z,97.13
2022-12-25T00:31:22.945Z,96.12
2022-12-25T00:34:25.696Z,95.56
2022-12-25T00:37:28.233Z,94.61
2022-12-25T00:40:31.251Z,94.99
2022-12-25T00:43:33.721Z,94.89
2022-12-25T00:46:36.503Z,95.61
2022-12-25T00:49:39.279Z,96.14
2022-12-25T00:52:41.519Z,95.21
2022-12-25T00:55:45.159Z,95.82
2022-12-25T00:58:48.047Z,94.17
2022-12-25T01:01:51.017Z,95.31
2022-12-25T01:04:54.624Z,95.95
2022-12-25T01:07:56.955Z,96.30
2022-12-25T01:11:00.277Z,96.42
2022-12-25T01:14:02.657Z,99.10
2022-12-25T01:17:05.603Z,96.56
2022-12-25T01:20:09.895Z,96.63
2022-12-25T01:23:12.765Z,96.52
2022-12-25T01:26:15.636Z,98.52
2022-12-25T01:29:18.234Z,98.01
2022-12-25T01:32:20.959Z,97.52
2022-12-25T01:35:23.305Z,98.47
2022-12-25T01:38:25.767Z,97.93
2022-12-25T01:41:28.135Z,98.03
2022-12-25T01:44:36.267Z,95.70
2022-12-25T01:47:38.671Z,96.27
2022-12-25T01:50:42.440Z,96.10
2022-12-25T01:53:44.749Z,98.62
2022-12-25T01:56:47.180Z,99.50
2022-12-25T01:59:49.791Z,98.81
2022-12-25T02:02:52.302Z,97.49
2022-12-25T02:05:55.204Z,97.03
2022-12-25T02:08:57.603Z,97.10
2022-12-25T02:12:00.339Z,97.85
2022-12-25T02:15:06.065Z,96.23
2022-12-25T02:18:25.782Z,96.53
2022-12-25T02:21:43.340Z,96.55
2022-12-25T02:24:48.968Z,95.89
2022-12-25T02:28:01.787Z,96.01
2022-12-25T02:31:07.199Z,95.83
2022-12-25T02:34:14.566Z,96.27
2022-12-25T02:37:19.221Z,97.44
2022-12-25T02:40:28.529Z,98.11
2022-12-25T02:43:53.945Z,97.72
2022-12-25T02:47:15.296Z,96.39
2022-12-25T02:50:36.585Z,96.93
2022-12-25T02:53:58.835Z,98.21
2022-12-25T02:57:21.599Z,100.00
2022-12-25T03:00:42.836Z,100.00
2022-12-25T03:04:03.800Z,100.00
2022-12-25T03:07:07.681Z,100.00
2022-12-25T03:10:28.642Z,100.00
2022-12-25T03:13:32.690Z,100.00
2022-12-25T03:16:54.145Z,100.00
2022-12-25T03:20:16.980Z,100.00
2022-12-25T03:23:39.683Z,100.00
2022-12-25T03:26:57.754Z,100.00
2022-12-25T03:30:19.139Z,100.00
2022-12-25T03:33:44.446Z,99.59
2022-12-25T03:36:56.551Z,100.00
2022-12-25T03:39:58.783Z,100.00
2022-12-25T03:43:39.895Z,100.00
2022-12-25T03:47:08.230Z,100.00
2022-12-25T03:50:35.642Z,100.00
2022-12-25T03:53:58.634Z,100.00
2022-12-25T03:57:20.087Z,99.33
2022-12-25T04:00:41.510Z,99.25
2022-12-25T04:04:02.648Z,99.71
2022-12-25T04:07:23.596Z,100.00
2022-12-25T04:10:44.648Z,100.00
2022-12-25T04:14:05.769Z,99.80
2022-12-25T04:17:26.622Z,100.00
2022-12-25T04:20:47.854Z,100.00
2022-12-25T04:24:09.452Z,100.00
2022-12-25T04:31:08.768Z,100.00
2022-12-25T04:34:30.549Z,100.00
2022-12-25T04:37:33.902Z,100.00
2022-12-25T04:40:37.419Z,99.88
2022-12-25T04:43:40.989Z,100.00
2022-12-25T04:46:44.647Z,100.00
2022-12-25T04:49:50.683Z,100.00
2022-12-25T04:52:54.225Z,100.00
2022-12-25T04:56:03.318Z,100.00
2022-12-25T04:59:09.013Z,100.00
2022-12-25T05:02:15.314Z,100.00
2022-12-25T05:05:22.353Z,100.00
2022-12-25T05:08:25.920Z,100.00
2022-12-25T05:11:32.440Z,100.00
2022-12-25T05:14:35.766Z,100.00
2022-12-25T05:17:41.377Z,100.00
2022-12-25T05:20:54.681Z,100.00
2022-12-25T05:24:03.098Z,100.00
2022-12-25T05:27:06.250Z,100.00
2022-12-25T05:30:12.794Z,100.00
2022-12-25T05:33:20.540Z,100.00
2022-12-25T05:36:27.508Z,100.00
2022-12-25T05:39:33.305Z,100.00
2022-12-25T05:42:36.838Z,100.00
2022-12-25T05:45:40.370Z,100.00
2022-12-25T05:48:44.125Z,100.00
2022-12-25T05:51:51.940Z,100.00
2022-12-25T05:54:55.351Z,100.00
2022-12-25T05:58:01.455Z,100.00
2022-12-25T06:01:12.255Z,100.00
2022-12-25T06:04:20.934Z,100.00
2022-12-25T06:07:23.772Z,100.00
2022-12-25T06:10:32.969Z,100.00
2022-12-25T06:13:36.901Z,100.00
2022-12-25T06:16:43.555Z,99.33
2022-12-25T06:19:49.341Z,99.85
2022-12-25T06:22:58.199Z,100.00
2022-12-25T06:26:20.041Z,100.00
2022-12-25T06:29:23.429Z,100.00
2022-12-25T06:32:28.872Z,100.00
2022-12-25T06:35:39.496Z,100.00
2022-12-25T06:38:52.291Z,100.00
2022-12-25T06:41:56.536Z,100.00
2022-12-25T06:45:03.033Z,100.00
2022-12-25T06:48:11.339Z,100.00
2022-12-25T06:51:20.009Z,100.00
2022-12-25T06:54:23.010Z,100.00
2022-12-25T06:57:28.613Z,100.00
2022-12-25T07:00:31.415Z,100.00
2022-12-25T07:03:34.634Z,100.00
2022-12-25T07:06:38.667Z,100.00
2022-12-25T07:09:45.490Z,100.00
2022-12-25T07:12:48.921Z,100.00
2022-12-25T07:16:01.698Z,100.00
2022-12-25T07:19:07.700Z,100.00
2022-12-25T07:22:12.336Z,100.00
2022-12-25T07:25:15.767Z,100.00
2022-12-25T07:28:18.841Z,100.00
2022-12-25T07:31:22.367Z,100.00
2022-12-25T07:34:27.502Z,100.00
2022-12-25T07:37:40.089Z,100.00
2022-12-25T07:40:46.947Z,100.00
2022-12-25T07:43:53.437Z,100.00
2022-12-25T07:46:56.776Z,100.00
2022-12-25T07:50:05.448Z,100.00
2022-12-25T07:53:09.172Z,100.00
2022-12-25T07:56:14.614Z,100.00
2022-12-25T07:59:18.566Z,100.00
2022-12-25T08:02:29.293Z,100.00
2022-12-25T08:05:35.739Z,100.00
2022-12-25T08:08:43.384Z,100.00
2022-12-25T08:11:56.854Z,100.00
2022-12-25T08:14:59.831Z,100.00
2022-12-25T08:18:05.611Z,100.00
2022-12-25T08:21:13.950Z,100.00
2022-12-25T08:24:25.685Z,100.00
2022-12-25T08:27:37.192Z,100.00
2022-12-25T08:30:41.282Z,100.00
2022-12-25T08:33:44.051Z,100.00
2022-12-25T08:36:47.234Z,100.00
2022-12-25T08:39:54.410Z,100.00
2022-12-25T08:43:03.501Z,100.00
2022-12-25T08:46:09.743Z,100.00
2022-12-25T08:49:13.330Z,100.00
2022-12-25T08:52:16.734Z,100.00
2022-12-25T08:55:19.634Z,100.00
2022-12-25T08:58:24.208Z,100.00
2022-12-25T09:01:30.449Z,100.00
2022-12-25T09:04:40.277Z,100.00
2022-12-25T09:07:45.976Z,100.00
2022-12-25T09:10:49.468Z,100.00
2022-12-25T09:13:58.386Z,100.00
2022-12-25T09:17:21.903Z,100.00
2022-12-25T09:20:28.034Z,100.00
2022-12-25T09:23:30.887Z,100.00
2022-12-25T09:26:34.207Z,100.00
2022-12-25T09:29:39.430Z,100.00
2022-12-25T09:32:44.217Z,100.00
2022-12-25T09:35:54.862Z,100.00
2022-12-25T09:38:59.436Z,99.96
2022-12-25T09:42:02.531Z,99.55
2022-12-25T09:45:06.588Z,99.13
2022-12-25T09:48:12.948Z,98.78
2022-12-25T09:51:16.230Z,97.62
2022-12-25T09:54:20.750Z,98.06
2022-12-25T09:57:24.479Z,99.61
2022-12-25T10:00:29.705Z,100.00
2022-12-25T10:03:35.215Z,100.00
2022-12-25T10:06:47.476Z,100.00
2022-12-25T10:10:05.607Z,100.00
2022-12-25T10:13:14.438Z,100.00
2022-12-25T10:16:26.105Z,100.00
2022-12-25T10:19:32.122Z,100.00
2022-12-25T10:22:40.115Z,100.00
2022-12-25T10:25:42.677Z,100.00
2022-12-25T10:28:46.738Z,100.00
2022-12-25T10:31:50.192Z,100.00
2022-12-25T10:34:53.303Z,100.00
2022-12-25T10:37:59.073Z,100.00
2022-12-25T10:41:11.924Z,100.00
2022-12-25T10:44:26.018Z,100.00
2022-12-25T10:47:33.984Z,100.00
2022-12-25T10:54:00.780Z,100.00
2022-12-25T10:57:09.188Z,100.00
2022-12-25T11:00:23.907Z,99.68
2022-12-25T11:03:33.895Z,98.95
2022-12-25T11:06:45.288Z,98.66
2022-12-25T11:09:59.355Z,98.88
2022-12-25T11:13:25.729Z,98.71
2022-12-25T11:16:47.599Z,98.32
2022-12-25T11:20:02.632Z,98.49
2022-12-25T11:23:11.525Z,99.06
2022-12-25T11:26:14.730Z,98.80
2022-12-25T11:29:38.893Z,98.01
2022-12-25T11:32:46.127Z,97.71
2022-12-25T11:35:53.403Z,96.33
2022-12-25T11:38:56.326Z,95.04
2022-12-25T11:42:07.441Z,95.25
2022-12-25T11:45:14.003Z,94.59
2022-12-25T11:48:27.809Z,92.58
2022-12-25T11:51:34.596Z,92.34
2022-12-25T11:54:43.992Z,91.73
2022-12-25T11:57:51.895Z,90.85
2022-12-25T12:00:55.589Z,90.95
2022-12-25T12:04:00.730Z,92.19
2022-12-25T12:07:07.758Z,92.07
2022-12-25T12:10:25.698Z,92.42
2022-12-25T12:13:39.863Z,91.88
2022-12-25T12:16:43.601Z,91.11
2022-12-25T12:19:50.057Z,91.50
2022-12-25T12:22:57.886Z,92.30
2022-12-25T12:26:04.241Z,91.61
2022-12-25T12:29:11.692Z,91.86
2022-12-25T12:32:38.858Z,92.08
2022-12-25T12:35:42.835Z,92.05
2022-12-25T12:38:57.483Z,92.24
2022-12-25T12:42:02.943Z,92.43
2022-12-25T12:45:12.559Z,91.95
2022-12-25T12:48:25.496Z,91.14
2022-12-25T12:51:32.867Z,91.73
2022-12-25T12:54:52.031Z,91.91
2022-12-25T12:57:58.886Z,91.63
2022-12-25T13:01:21.419Z,91.64
2022-12-25T13:04:29.231Z,91.93
2022-12-25T13:07:54.013Z,91.74
2022-12-25T13:11:09.227Z,91.29
2022-12-25T13:14:14.841Z,91.59
2022-12-25T13:17:25.540Z,91.63
2022-12-25T13:20:55.274Z,91.37
2022-12-25T13:24:09.392Z,91.05
2022-12-25T13:27:27.669Z,91.64
2022-12-25T13:30:33.802Z,90.68
2022-12-25T13:33:37.571Z,89.78
2022-12-25T13:36:41.255Z,89.45
2022-12-25T13:39:49.368Z,88.23
2022-12-25T13:42:57.369Z,87.15
2022-12-25T13:46:00.805Z,86.51
2022-12-25T13:49:04.964Z,86.12
2022-12-25T13:52:15.952Z,85.74
2022-12-25T13:55:27.244Z,85.99
2022-12-25T13:58:30.953Z,85.72
2022-12-25T14:01:33.610Z,84.81
2022-12-25T14:04:43.556Z,86.24
2022-12-25T14:07:50.590Z,86.14
2022-12-25T14:10:53.669Z,85.74
2022-12-25T14:14:01.115Z,86.66
2022-12-25T14:17:08.865Z,87.40
2022-12-25T14:20:24.670Z,88.02
2022-12-25T14:23:27.555Z,87.33
2022-12-25T14:26:31.160Z,89.55
2022-12-25T14:29:40.374Z,90.94
2022-12-25T14:32:43.632Z,91.80
2022-12-25T14:35:46.320Z,91.65
2022-12-25T14:38:58.620Z,92.34
2022-12-25T14:42:02.326Z,93.05
2022-12-25T14:45:06.749Z,92.19
2022-12-25T14:48:22.887Z,91.88
2022-12-25T14:51:27.632Z,92.34
2022-12-25T14:54:29.954Z,93.73
2022-12-25T14:57:35.171Z,93.84
2022-12-25T15:00:38.372Z,93.05
2022-12-25T15:03:40.947Z,93.00
2022-12-25T15:06:57.112Z,94.63
2022-12-25T15:10:36.773Z,94.77
2022-12-25T15:13:22.291Z,95.66
2022-12-25T15:16:43.764Z,95.16
2022-12-25T15:19:46.284Z,94.81
2022-12-25T15:23:17.918Z,94.29
2022-12-25T15:26:13.251Z,93.91
2022-12-25T15:29:15.626Z,95.69
2022-12-25T15:32:19.260Z,95.00
2022-12-25T15:35:22.030Z,95.06
2022-12-25T15:38:26.927Z,95.63
2022-12-25T15:41:48.038Z,96.00
2022-12-25T15:44:50.881Z,96.91
2022-12-25T15:47:53.404Z,96.50
2022-12-25T15:50:55.899Z,96.07
2022-12-25T15:53:59.338Z,95.87
2022-12-25T15:57:03.059Z,95.48
2022-12-25T16:00:05.868Z,96.20
2022-12-25T16:03:14.361Z,96.77
2022-12-25T16:06:17.340Z,96.69
2022-12-25T16:09:22.795Z,96.36
2022-12-25T16:12:25.770Z,95.87
2022-12-25T16:15:28.494Z,96.53
2022-12-25T16:18:31.356Z,96.57
2022-12-25T16:21:41.092Z,95.99
2022-12-25T16:24:43.480Z,96.36
2022-12-25T16:27:46.218Z,95.55
2022-12-25T16:30:48.996Z,95.62
2022-12-25T16:33:52.597Z,96.27
2022-12-25T16:36:56.839Z,95.40
2022-12-25T16:39:59.608Z,95.72
2022-12-25T16:43:02.323Z,95.86
2022-12-25T16:46:09.251Z,95.85
2022-12-25T16:49:11.934Z,94.94
2022-12-25T16:52:14.486Z,94.70
2022-12-25T16:55:17.211Z,95.25
2022-12-25T16:58:19.658Z,95.42
2022-12-25T17:01:23.110Z,95.94
2022-12-25T17:04:26.937Z,95.21
2022-12-25T17:07:29.685Z,94.81
2022-12-25T17:10:32.864Z,95.72
2022-12-25T17:13:35.555Z,95.11
2022-12-25T17:16:38.950Z,95.58
2022-12-25T17:19:41.881Z,95.96
2022-12-25T17:22:44.709Z,96.47
2022-12-25T17:25:47.672Z,96.73
2022-12-25T17:28:50.560Z,97.25
2022-12-25T17:31:54.011Z,95.87
2022-12-25T17:34:57.294Z,95.83
2022-12-25T17:37:59.820Z,95.27
2022-12-25T17:41:05.462Z,95.12
2022-12-25T17:44:08.669Z,95.77
2022-12-25T17:47:11.330Z,95.83
2022-12-25T17:50:13.947Z,95.71
2022-12-25T17:53:18.410Z,96.25
2022-12-25T17:56:21.539Z,96.71
2022-12-25T17:59:28.717Z,96.85
2022-12-25T18:02:31.506Z,99.57
2022-12-25T18:05:37.284Z,98.54
2022-12-25T18:08:40.458Z,96.98
2022-12-25T18:11:43.156Z,99.85
2022-12-25T18:14:45.572Z,100.00
2022-12-25T18:17:47.965Z,100.00
2022-12-25T18:20:52.859Z,100.00
2022-12-25T18:23:55.161Z,100.00
2022-12-25T18:26:58.020Z,100.00
2022-12-25T18:30:00.990Z,100.00
2022-12-25T18:33:03.802Z,100.00
2022-12-25T18:36:07.344Z,100.00
2022-12-25T18:39:11.978Z,100.00
2022-12-25T18:42:33.763Z,100.00
2022-12-25T18:45:36.939Z,100.00
2022-12-25T18:48:40.284Z,100.00
2022-12-25T18:51:42.914Z,100.00
2022-12-25T18:54:45.639Z,100.00
2022-12-25T18:57:48.332Z,100.00
2022-12-25T19:00:51.563Z,100.00
2022-12-25T19:04:00.184Z,100.00
2022-12-25T19:07:06.810Z,100.00
2022-12-25T19:10:10.569Z,100.00
2022-12-25T19:13:13.261Z,100.00
2022-12-25T19:16:15.747Z,100.00
2022-12-25T19:19:18.461Z,100.00
2022-12-25T19:22:20.889Z,100.00
2022-12-25T19:25:23.502Z,100.00
2022-12-25T19:28:26.202Z,100.00
2022-12-25T19:31:28.852Z,100.00
2022-12-25T19:34:31.565Z,100.00
2022-12-25T19:37:37.565Z,100.00
2022-12-25T19:40:41.520Z,100.00
2022-12-25T19:43:45.955Z,100.00
2022-12-25T19:46:50.355Z,100.00
2022-12-25T19:49:56.402Z,100.00
2022-12-25T19:53:02.336Z,100.00
2022-12-25T19:56:04.936Z,100.00
2022-12-25T19:59:07.733Z,100.00
2022-12-25T20:02:11.179Z,100.00
2022-12-25T20:05:13.872Z,100.00
2022-12-25T20:08:17.572Z,100.00
2022-12-25T20:11:21.158Z,100.00
2022-12-25T20:14:23.886Z,100.00
2022-12-25T20:17:28.712Z,100.00
2022-12-25T20:20:31.701Z,100.00
2022-12-25T20:23:34.577Z,100.00
2022-12-25T20:26:39.015Z,100.00
2022-12-25T20:29:41.971Z,100.00
2022-12-25T20:32:50.412Z,100.00
2022-12-25T20:35:58.885Z,100.00
2022-12-25T20:39:02.703Z,100.00
2022-12-25T20:42:06.954Z,100.00
2022-12-25T20:45:11.332Z,100.00
2022-12-25T20:48:19.727Z,100.00
2022-12-25T20:51:23.622Z,99.78
2022-12-25T20:54:26.118Z,100.00
2022-12-25T20:57:29.362Z,99.66
2022-12-25T21:00:32.969Z,99.27
2022-12-25T21:03:36.934Z,99.36
2022-12-25T21:06:40.058Z,99.38
2022-12-25T21:09:43.196Z,99.25
2022-12-25T21:12:46.295Z,99.16
2022-12-25T21:15:51.209Z,98.93
2022-12-25T21:18:55.212Z,98.94
2022-12-25T21:21:58.311Z,98.77
2022-12-25T21:25:00.947Z,98.70
2022-12-25T21:28:04.671Z,98.80
2022-12-25T21:31:14.077Z,98.62
2022-12-25T21:34:19.281Z,96.99
2022-12-25T21:37:23.119Z,96.32
2022-12-25T21:40:30.215Z,95.12
2022-12-25T21:43:33.883Z,94.83
2022-12-25T21:46:37.809Z,95.63
2022-12-25T21:49:59.159Z,94.65
2022-12-25T21:53:01.902Z,94.79
2022-12-25T21:56:04.839Z,93.62
2022-12-25T21:59:08.460Z,93.71
2022-12-25T22:02:14.253Z,93.63
2022-12-25T22:05:35.810Z,93.59
2022-12-25T22:08:39.088Z,94.15
2022-12-25T22:12:00.438Z,94.88
2022-12-25T22:15:07.123Z,95.86
2022-12-25T22:18:28.958Z,96.02
2022-12-25T22:21:31.935Z,94.82
2022-12-25T22:24:34.340Z,94.68
2022-12-25T22:27:38.212Z,94.30
2022-12-25T22:30:44.591Z,94.31
2022-12-25T22:33:47.141Z,95.60
2022-12-25T22:36:49.502Z,95.35
2022-12-25T22:39:52.033Z,95.49
2022-12-25T22:42:55.236Z,94.86
2022-12-25T22:46:01.327Z,95.26
2022-12-25T22:49:04.006Z,95.05
2022-12-25T22:52:08.464Z,95.45
2022-12-25T22:55:11.155Z,95.45
2022-12-25T22:58:13.872Z,95.34
2022-12-25T23:01:17.473Z,95.73
2022-12-25T23:04:20.046Z,95.63
2022-12-25T23:07:22.509Z,95.53
2022-12-25T23:10:24.996Z,95.51
2022-12-25T23:13:46.168Z,95.58
2022-12-25T23:16:48.740Z,95.29
2022-12-25T23:20:09.904Z,94.92
2022-12-25T23:23:35.160Z,94.91
2022-12-25T23:26:37.513Z,95.09
2022-12-25T23:29:40.177Z,94.77
2022-12-25T23:32:42.860Z,94.60
2022-12-25T23:35:45.273Z,94.04
2022-12-25T23:38:47.778Z,93.81
2022-12-25T23:41:50.044Z,93.88
2022-12-25T23:44:52.485Z,94.00
2022-12-25T23:47:54.819Z,94.72
2022-12-25T23:50:57.358Z,93.15
2022-12-25T23:53:59.735Z,94.27
2022-12-25T23:57:02.262Z,91.87
